createdAt,value
2022-10-02T00:00:22.065Z,8.99
2022-10-02T00:01:22.986Z,9.01
2022-10-02T00:02:23.859Z,9.04
2022-10-02T00:03:24.737Z,9.02
2022-10-02T00:04:25.747Z,9.02
2022-10-02T00:05:26.104Z,9.02
2022-10-02T00:06:26.975Z,9.04
2022-10-02T00:07:27.867Z,9.01
2022-10-02T00:08:28.759Z,9.04
2022-10-02T00:09:29.622Z,9.02
2022-10-02T00:10:30.493Z,9.04
2022-10-02T00:11:31.376Z,9.02
2022-10-02T00:12:32.269Z,9.02
2022-10-02T00:13:33.150Z,9.01
2022-10-02T00:14:34.022Z,9.04
2022-10-02T00:15:34.904Z,9.01
2022-10-02T00:16:36.099Z,9.01
2022-10-02T00:17:36.618Z,9.01
2022-10-02T00:18:37.502Z,9.01
2022-10-02T00:19:38.386Z,8.99
2022-10-02T00:20:39.259Z,8.99
2022-10-02T00:21:40.140Z,8.99
2022-10-02T00:22:41.032Z,8.98
2022-10-02T00:23:41.929Z,8.98
2022-10-02T00:24:42.785Z,8.99
2022-10-02T00:25:43.669Z,8.99
2022-10-02T00:26:44.549Z,8.96
2022-10-02T00:27:45.467Z,8.96
2022-10-02T00:28:46.315Z,8.99
2022-10-02T00:29:47.195Z,9.01
2022-10-02T00:30:49.206Z,8.98
2022-10-02T00:31:48.617Z,8.98
2022-10-02T00:32:49.474Z,8.96
2022-10-02T00:33:50.356Z,8.96
2022-10-02T00:34:51.239Z,8.98
2022-10-02T00:35:52.121Z,8.96
2022-10-02T00:36:52.993Z,8.99
2022-10-02T00:37:53.887Z,8.98
2022-10-02T00:38:54.797Z,8.98
2022-10-02T00:39:55.651Z,8.98
2022-10-02T00:40:56.523Z,8.98
2022-10-02T00:41:57.417Z,8.96
2022-10-02T00:42:58.300Z,8.96
2022-10-02T00:43:59.182Z,8.94
2022-10-02T00:45:00.077Z,8.95
2022-10-02T00:46:00.984Z,8.96
2022-10-02T00:47:01.856Z,8.95
2022-10-02T00:48:02.737Z,8.95
2022-10-02T00:49:03.624Z,8.95
2022-10-02T00:50:04.503Z,8.95
2022-10-02T00:51:05.385Z,8.96
2022-10-02T00:52:06.274Z,8.95
2022-10-02T00:53:07.148Z,8.96
2022-10-02T00:54:08.047Z,8.95
2022-10-02T00:55:08.899Z,8.96
2022-10-02T00:56:09.782Z,8.95
2022-10-02T00:57:10.664Z,8.96
2022-10-02T00:58:11.546Z,8.96
2022-10-02T00:59:12.420Z,8.96
2022-10-02T01:00:13.302Z,8.95
2022-10-02T01:01:14.244Z,8.96
2022-10-02T01:02:15.123Z,8.95
2022-10-02T01:03:15.967Z,8.92
2022-10-02T01:04:16.840Z,8.94
2022-10-02T01:05:17.724Z,8.92
2022-10-02T01:06:18.605Z,8.91
2022-10-02T01:07:19.495Z,8.91
2022-10-02T01:08:20.379Z,8.89
2022-10-02T01:09:21.280Z,8.89
2022-10-02T01:10:22.132Z,8.89
2022-10-02T01:11:23.013Z,8.91
2022-10-02T01:12:23.905Z,8.89
2022-10-02T01:13:24.794Z,8.89
2022-10-02T01:14:25.669Z,8.86
2022-10-02T01:15:26.551Z,8.89
2022-10-02T01:16:27.467Z,8.87
2022-10-02T01:17:28.344Z,8.87
2022-10-02T01:18:29.216Z,8.87
2022-10-02T01:19:30.101Z,8.86
2022-10-02T01:20:30.971Z,8.86
2022-10-02T01:21:31.852Z,8.84
2022-10-02T01:22:32.734Z,8.86
2022-10-02T01:23:33.616Z,8.83
2022-10-02T01:24:34.518Z,8.81
2022-10-02T01:25:35.380Z,8.81
2022-10-02T01:26:36.554Z,8.83
2022-10-02T01:27:39.313Z,8.81
2022-10-02T01:28:37.917Z,8.80
2022-10-02T01:29:38.800Z,8.83
2022-10-02T01:30:39.671Z,8.81
2022-10-02T01:31:40.649Z,8.83
2022-10-02T01:32:41.475Z,8.84
2022-10-02T01:33:42.357Z,8.84
2022-10-02T01:34:43.229Z,8.84
2022-10-02T01:35:44.112Z,8.87
2022-10-02T01:36:44.994Z,8.84
2022-10-02T01:37:45.888Z,8.84
2022-10-02T01:38:46.770Z,8.84
2022-10-02T01:39:47.673Z,8.84
2022-10-02T01:40:48.526Z,8.86
2022-10-02T01:41:49.408Z,8.83
2022-10-02T01:42:50.291Z,8.83
2022-10-02T01:43:51.174Z,8.83
2022-10-02T01:44:52.051Z,8.83
2022-10-02T01:45:53.076Z,8.83
2022-10-02T01:46:53.443Z,8.83
2022-10-02T01:47:54.331Z,8.84
2022-10-02T01:48:55.205Z,8.86
2022-10-02T01:49:56.086Z,8.84
2022-10-02T01:50:56.961Z,8.84
2022-10-02T01:51:57.842Z,8.87
2022-10-02T01:52:58.725Z,8.87
2022-10-02T01:53:59.606Z,8.89
2022-10-02T01:55:00.507Z,8.91
2022-10-02T01:56:01.371Z,8.91
2022-10-02T01:57:02.267Z,8.91
2022-10-02T01:58:03.159Z,8.94
2022-10-02T01:59:04.021Z,8.94
2022-10-02T02:00:04.903Z,8.94
2022-10-02T02:01:05.799Z,8.92
2022-10-02T02:02:06.735Z,8.92
2022-10-02T02:03:07.608Z,8.94
2022-10-02T02:04:08.491Z,8.92
2022-10-02T02:05:09.364Z,8.95
2022-10-02T02:06:10.246Z,8.95
2022-10-02T02:07:11.129Z,8.94
2022-10-02T02:08:12.010Z,8.95
2022-10-02T02:09:12.893Z,8.94
2022-10-02T02:10:13.795Z,8.95
2022-10-02T02:11:14.647Z,8.95
2022-10-02T02:12:15.537Z,8.96
2022-10-02T02:13:16.410Z,8.95
2022-10-02T02:14:17.291Z,8.96
2022-10-02T02:15:18.174Z,8.95
2022-10-02T02:16:19.142Z,8.95
2022-10-02T02:17:19.977Z,8.96
2022-10-02T02:18:20.858Z,8.96
2022-10-02T02:19:21.730Z,8.98
2022-10-02T02:20:22.613Z,8.99
2022-10-02T02:21:23.495Z,8.98
2022-10-02T02:22:24.389Z,8.98
2022-10-02T02:23:25.259Z,8.96
2022-10-02T02:24:26.141Z,8.96
2022-10-02T02:25:27.034Z,8.96
2022-10-02T02:26:27.895Z,8.96
2022-10-02T02:27:28.780Z,8.96
2022-10-02T02:28:29.752Z,8.96
2022-10-02T02:29:30.584Z,8.95
2022-10-02T02:30:31.466Z,8.95
2022-10-02T02:31:32.440Z,8.96
2022-10-02T02:32:33.269Z,8.94
2022-10-02T02:33:34.152Z,8.94
2022-10-02T02:34:35.033Z,8.94
2022-10-02T02:35:35.915Z,8.95
2022-10-02T02:36:37.146Z,8.96
2022-10-02T02:37:37.639Z,8.95
2022-10-02T02:38:38.522Z,8.95
2022-10-02T02:39:39.405Z,8.95
2022-10-02T02:40:40.305Z,8.96
2022-10-02T02:41:41.161Z,8.96
2022-10-02T02:42:42.051Z,8.98
2022-10-02T02:43:42.931Z,8.98
2022-10-02T02:44:43.813Z,8.96
2022-10-02T02:45:44.729Z,8.99
2022-10-02T02:46:45.576Z,8.98
2022-10-02T02:47:46.449Z,8.99
2022-10-02T02:48:47.333Z,8.98
2022-10-02T02:49:48.212Z,8.98
2022-10-02T02:50:49.086Z,8.98
2022-10-02T02:51:49.977Z,8.96
2022-10-02T02:52:50.859Z,8.98
2022-10-02T02:53:51.741Z,8.96
2022-10-02T02:54:52.622Z,8.96
2022-10-02T02:55:53.527Z,8.95
2022-10-02T02:56:54.394Z,8.96
2022-10-02T02:57:55.266Z,8.95
2022-10-02T02:58:56.148Z,8.95
2022-10-02T02:59:57.030Z,8.95
2022-10-02T03:00:57.937Z,8.98
2022-10-02T03:01:58.857Z,8.96
2022-10-02T03:02:59.685Z,8.95
2022-10-02T03:04:00.560Z,8.98
2022-10-02T03:05:01.440Z,8.96
2022-10-02T03:06:02.312Z,8.98
2022-10-02T03:07:03.204Z,8.98
2022-10-02T03:08:04.088Z,8.99
2022-10-02T03:09:04.969Z,8.99
2022-10-02T03:10:05.852Z,8.98
2022-10-02T03:11:06.754Z,8.98
2022-10-02T03:12:07.618Z,8.98
2022-10-02T03:13:08.500Z,8.98
2022-10-02T03:14:09.376Z,8.96
2022-10-02T03:15:10.256Z,8.98
2022-10-02T03:16:11.178Z,8.98
2022-10-02T03:17:12.033Z,8.98
2022-10-02T03:18:12.909Z,8.99
2022-10-02T03:19:13.792Z,8.99
2022-10-02T03:20:14.665Z,8.99
2022-10-02T03:21:15.548Z,8.99
2022-10-02T03:22:16.440Z,8.98
2022-10-02T03:23:17.322Z,9.01
2022-10-02T03:24:18.206Z,8.99
2022-10-02T03:25:19.087Z,8.99
2022-10-02T03:26:19.992Z,9.01
2022-10-02T03:27:20.861Z,8.99
2022-10-02T03:28:43.604Z,9.02
2022-10-02T03:29:23.513Z,8.99
2022-10-02T03:30:23.386Z,8.99
2022-10-02T03:31:24.353Z,9.01
2022-10-02T03:32:25.202Z,9.01
2022-10-02T03:33:26.083Z,9.01
2022-10-02T03:34:26.956Z,9.02
2022-10-02T03:35:27.839Z,9.01
2022-10-02T03:36:28.721Z,9.02
2022-10-02T03:37:29.613Z,9.01
2022-10-02T03:38:30.486Z,9.01
2022-10-02T03:39:31.367Z,9.02
2022-10-02T03:40:32.264Z,9.02
2022-10-02T03:41:33.158Z,9.02
2022-10-02T03:42:34.020Z,9.02
2022-10-02T03:43:34.902Z,9.04
2022-10-02T03:44:35.776Z,9.02
2022-10-02T03:45:50.887Z,9.02
2022-10-02T03:46:38.889Z,9.04
2022-10-02T03:47:38.417Z,9.02
2022-10-02T03:48:39.289Z,9.02
2022-10-02T03:49:40.171Z,9.02
2022-10-02T03:50:41.044Z,9.01
2022-10-02T03:51:41.926Z,9.02
2022-10-02T03:52:42.821Z,9.02
2022-10-02T03:53:43.702Z,9.04
2022-10-02T03:54:44.585Z,9.04
2022-10-02T03:55:45.467Z,9.05
2022-10-02T03:56:46.369Z,9.05
2022-10-02T03:57:47.243Z,9.05
2022-10-02T03:58:48.115Z,9.04
2022-10-02T03:59:48.998Z,9.04
2022-10-02T04:00:49.882Z,9.05
2022-10-02T04:01:50.861Z,9.05
2022-10-02T04:02:51.717Z,9.05
2022-10-02T04:03:52.652Z,9.04
2022-10-02T04:04:53.492Z,9.02
2022-10-02T04:05:54.375Z,9.04
2022-10-02T04:06:55.258Z,9.04
2022-10-02T04:07:56.139Z,9.04
2022-10-02T04:08:57.027Z,9.04
2022-10-02T04:09:57.906Z,9.05
2022-10-02T04:10:58.780Z,9.04
2022-10-02T04:11:59.690Z,9.05
2022-10-02T04:13:00.544Z,9.05
2022-10-02T04:14:01.426Z,9.05
2022-10-02T04:15:02.309Z,9.05
2022-10-02T04:16:03.227Z,9.05
2022-10-02T04:17:04.075Z,9.05
2022-10-02T04:18:04.956Z,9.08
2022-10-02T04:19:05.839Z,9.05
2022-10-02T04:20:06.722Z,9.05
2022-10-02T04:21:07.594Z,9.04
2022-10-02T04:22:08.487Z,9.04
2022-10-02T04:23:09.368Z,9.02
2022-10-02T04:24:10.252Z,9.02
2022-10-02T04:25:11.137Z,9.02
2022-10-02T04:26:12.018Z,9.02
2022-10-02T04:27:12.919Z,9.01
2022-10-02T04:28:13.847Z,9.02
2022-10-02T04:29:14.666Z,9.01
2022-10-02T04:30:15.547Z,9.01
2022-10-02T04:31:16.491Z,9.01
2022-10-02T04:32:17.358Z,9.02
2022-10-02T04:33:18.233Z,9.01
2022-10-02T04:34:19.115Z,9.02
2022-10-02T04:35:19.989Z,9.02
2022-10-02T04:36:20.870Z,9.02
2022-10-02T04:37:21.753Z,9.04
2022-10-02T04:38:22.635Z,9.04
2022-10-02T04:39:23.517Z,9.04
2022-10-02T04:40:24.399Z,9.04
2022-10-02T04:41:25.272Z,9.04
2022-10-02T04:42:26.181Z,9.04
2022-10-02T04:43:27.035Z,9.04
2022-10-02T04:44:27.917Z,9.04
2022-10-02T04:45:28.854Z,9.02
2022-10-02T04:46:29.704Z,9.05
2022-10-02T04:47:30.597Z,9.02
2022-10-02T04:48:31.479Z,9.02
2022-10-02T04:49:32.351Z,9.02
2022-10-02T04:50:33.232Z,9.02
2022-10-02T04:51:34.115Z,9.01
2022-10-02T04:52:35.007Z,9.02
2022-10-02T04:53:35.881Z,9.04
2022-10-02T04:54:36.761Z,9.04
2022-10-02T04:55:37.646Z,9.04
2022-10-02T04:56:38.889Z,9.02
2022-10-02T04:57:39.467Z,9.04
2022-10-02T04:58:40.323Z,9.04
2022-10-02T04:59:41.196Z,9.05
2022-10-02T05:00:42.149Z,9.08
2022-10-02T05:01:43.002Z,9.05
2022-10-02T05:02:43.855Z,9.05
2022-10-02T05:03:44.682Z,9.08
2022-10-02T05:04:45.562Z,9.05
2022-10-02T05:05:46.455Z,9.05
2022-10-02T05:06:47.327Z,9.05
2022-10-02T05:07:48.220Z,9.04
2022-10-02T05:08:49.102Z,9.05
2022-10-02T05:09:49.934Z,9.05
2022-10-02T05:10:50.763Z,9.04
2022-10-02T05:11:51.594Z,9.05
2022-10-02T05:12:52.441Z,9.10
2022-10-02T05:13:53.240Z,9.05
2022-10-02T05:14:54.070Z,9.05
2022-10-02T05:15:54.957Z,9.08
2022-10-02T05:16:55.834Z,9.05
2022-10-02T05:17:56.709Z,9.04
2022-10-02T05:18:57.589Z,9.04
2022-10-02T05:19:58.466Z,9.04
2022-10-02T05:20:59.294Z,9.04
2022-10-02T05:22:00.130Z,9.08
2022-10-02T05:23:01.012Z,9.04
2022-10-02T05:24:01.895Z,9.04
2022-10-02T05:25:02.726Z,9.05
2022-10-02T05:26:03.559Z,9.05
2022-10-02T05:27:04.382Z,9.04
2022-10-02T05:28:05.267Z,9.04
2022-10-02T05:29:06.030Z,9.04
2022-10-02T05:30:06.857Z,9.05
2022-10-02T05:31:07.770Z,9.04
2022-10-02T05:32:08.575Z,9.05
2022-10-02T05:33:09.404Z,9.02
2022-10-02T05:34:10.233Z,9.04
2022-10-02T05:35:11.053Z,9.05
2022-10-02T05:36:11.881Z,9.02
2022-10-02T05:37:12.708Z,9.02
2022-10-02T05:38:13.536Z,9.04
2022-10-02T05:39:14.357Z,9.04
2022-10-02T05:40:15.183Z,9.04
2022-10-02T05:41:16.002Z,9.04
2022-10-02T05:42:16.840Z,9.01
2022-10-02T05:43:17.676Z,9.01
2022-10-02T05:44:18.486Z,9.04
2022-10-02T05:45:19.325Z,9.04
2022-10-02T05:46:20.209Z,9.02
2022-10-02T05:47:20.983Z,9.02
2022-10-02T05:48:21.812Z,9.02
2022-10-02T05:49:22.632Z,9.04
2022-10-02T05:50:23.459Z,9.02
2022-10-02T05:51:24.279Z,9.04
2022-10-02T05:52:25.117Z,9.02
2022-10-02T05:53:25.936Z,9.05
2022-10-02T05:54:26.763Z,9.05
2022-10-02T05:55:27.582Z,9.05
2022-10-02T05:56:28.411Z,9.05
2022-10-02T05:57:29.249Z,9.05
2022-10-02T05:58:30.103Z,9.04
2022-10-02T05:59:30.897Z,9.05
2022-10-02T06:00:31.726Z,9.08
2022-10-02T06:01:32.592Z,9.08
2022-10-02T06:02:38.221Z,9.05
2022-10-02T06:03:35.099Z,9.08
2022-10-02T06:04:34.926Z,9.10
2022-10-02T06:05:35.746Z,9.10
2022-10-02T06:06:36.845Z,9.13
2022-10-02T06:07:37.282Z,9.11
2022-10-02T06:08:38.110Z,9.11
2022-10-02T06:09:38.940Z,9.11
2022-10-02T06:10:39.769Z,9.13
2022-10-02T06:11:40.597Z,9.13
2022-10-02T06:12:41.435Z,9.13
2022-10-02T06:13:42.275Z,9.14
2022-10-02T06:14:46.138Z,9.14
2022-10-02T06:15:44.799Z,9.14
2022-10-02T06:16:44.678Z,9.15
2022-10-02T06:17:45.495Z,9.15
2022-10-02T06:18:46.324Z,9.17
2022-10-02T06:19:47.143Z,9.14
2022-10-02T06:20:47.972Z,9.17
2022-10-02T06:21:48.792Z,9.18
2022-10-02T06:22:49.632Z,9.20
2022-10-02T06:23:50.448Z,9.21
2022-10-02T06:24:51.276Z,9.21
2022-10-02T06:25:52.109Z,9.23
2022-10-02T06:26:52.942Z,9.24
2022-10-02T06:27:53.814Z,9.21
2022-10-02T06:28:54.608Z,9.24
2022-10-02T06:29:55.409Z,9.24
2022-10-02T06:30:56.238Z,9.24
2022-10-02T06:31:57.131Z,9.26
2022-10-02T06:32:57.904Z,9.26
2022-10-02T06:33:58.724Z,9.28
2022-10-02T06:34:59.552Z,9.28
2022-10-02T06:36:00.375Z,9.29
2022-10-02T06:37:01.209Z,9.29
2022-10-02T06:38:02.039Z,9.29
2022-10-02T06:39:02.867Z,9.29
2022-10-02T06:40:03.721Z,9.31
2022-10-02T06:41:04.515Z,9.35
2022-10-02T06:42:05.343Z,9.35
2022-10-02T06:43:06.176Z,9.33
2022-10-02T06:44:07.012Z,9.36
2022-10-02T06:45:07.820Z,9.35
2022-10-02T06:46:08.699Z,9.35
2022-10-02T06:47:09.486Z,9.36
2022-10-02T06:48:10.305Z,9.38
2022-10-02T06:49:11.133Z,9.39
2022-10-02T06:50:11.954Z,9.40
2022-10-02T06:51:12.782Z,9.42
2022-10-02T06:52:13.609Z,9.42
2022-10-02T06:53:14.438Z,9.46
2022-10-02T06:54:15.257Z,9.47
2022-10-02T06:55:16.085Z,9.47
2022-10-02T06:56:16.904Z,9.47
2022-10-02T06:57:17.742Z,9.48
2022-10-02T06:58:18.565Z,9.50
2022-10-02T06:59:19.409Z,9.50
2022-10-02T07:00:20.210Z,9.51
2022-10-02T07:01:21.106Z,9.51
2022-10-02T07:02:21.967Z,9.50
2022-10-02T07:03:22.796Z,9.56
2022-10-02T07:04:23.604Z,9.54
2022-10-02T07:05:24.439Z,9.53
2022-10-02T07:06:25.253Z,9.56
2022-10-02T07:07:26.103Z,9.54
2022-10-02T07:08:26.908Z,9.56
2022-10-02T07:09:27.736Z,9.57
2022-10-02T07:10:28.565Z,9.57
2022-10-02T07:11:29.394Z,9.58
2022-10-02T07:12:30.233Z,9.57
2022-10-02T07:13:31.059Z,9.60
2022-10-02T07:14:31.897Z,9.60
2022-10-02T07:15:32.707Z,9.60
2022-10-02T07:16:33.684Z,9.61
2022-10-02T07:17:34.075Z,9.61
2022-10-02T07:18:34.894Z,9.60
2022-10-02T07:19:35.724Z,9.60
2022-10-02T07:20:36.543Z,9.61
2022-10-02T07:21:37.387Z,9.61
2022-10-02T07:22:45.125Z,9.60
2022-10-02T07:23:39.919Z,9.60
2022-10-02T07:24:39.739Z,9.60
2022-10-02T07:25:40.572Z,9.60
2022-10-02T07:26:41.396Z,9.60
2022-10-02T07:27:42.232Z,9.58
2022-10-02T07:28:43.054Z,9.60
2022-10-02T07:29:43.899Z,9.60
2022-10-02T07:30:44.701Z,9.60
2022-10-02T07:31:45.599Z,9.60
2022-10-02T07:32:46.396Z,9.64
2022-10-02T07:33:47.224Z,9.61
2022-10-02T07:34:48.045Z,9.64
2022-10-02T07:35:48.872Z,9.61
2022-10-02T07:36:49.705Z,9.64
2022-10-02T07:37:50.530Z,9.66
2022-10-02T07:38:51.349Z,9.66
2022-10-02T07:39:52.176Z,9.66
2022-10-02T07:40:55.157Z,9.66
2022-10-02T07:41:54.730Z,9.68
2022-10-02T07:42:54.549Z,9.66
2022-10-02T07:43:55.377Z,9.68
2022-10-02T07:44:56.215Z,9.69
2022-10-02T07:45:57.149Z,9.69
2022-10-02T07:46:57.944Z,9.72
2022-10-02T07:47:58.772Z,9.71
2022-10-02T07:48:59.590Z,9.71
2022-10-02T07:50:00.418Z,9.72
2022-10-02T07:51:01.248Z,9.74
2022-10-02T07:52:02.087Z,9.74
2022-10-02T07:53:02.907Z,9.74
2022-10-02T07:54:03.734Z,9.74
2022-10-02T07:55:04.555Z,9.75
2022-10-02T07:56:05.382Z,9.72
2022-10-02T07:57:09.752Z,9.74
2022-10-02T07:58:06.801Z,9.74
2022-10-02T07:59:07.624Z,9.75
2022-10-02T08:00:08.467Z,9.74
2022-10-02T08:01:09.270Z,9.75
2022-10-02T08:02:10.143Z,9.75
2022-10-02T08:03:10.974Z,9.76
2022-10-02T08:04:11.764Z,9.75
2022-10-02T08:05:12.583Z,9.76
2022-10-02T08:06:13.414Z,9.75
2022-10-02T08:07:14.239Z,9.78
2022-10-02T08:08:15.067Z,9.78
2022-10-02T08:09:15.886Z,9.79
2022-10-02T08:10:16.714Z,9.79
2022-10-02T08:11:17.545Z,9.81
2022-10-02T08:12:18.379Z,9.83
2022-10-02T08:13:19.201Z,9.84
2022-10-02T08:14:20.028Z,9.86
2022-10-02T08:15:20.931Z,9.84
2022-10-02T08:16:21.746Z,9.87
2022-10-02T08:17:22.586Z,9.87
2022-10-02T08:18:34.263Z,9.87
2022-10-02T08:19:25.129Z,9.89
2022-10-02T08:20:29.186Z,9.90
2022-10-02T08:21:25.698Z,9.90
2022-10-02T08:22:26.544Z,9.91
2022-10-02T08:23:27.355Z,9.93
2022-10-02T08:24:28.182Z,9.91
2022-10-02T08:25:29.006Z,9.91
2022-10-02T08:26:35.161Z,9.93
2022-10-02T08:27:31.557Z,9.93
2022-10-02T08:28:31.415Z,9.96
2022-10-02T08:29:32.243Z,9.96
2022-10-02T08:30:33.092Z,9.96
2022-10-02T08:31:33.966Z,9.97
2022-10-02T08:32:35.170Z,9.97
2022-10-02T08:33:35.449Z,9.97
2022-10-02T08:34:36.277Z,10.02
2022-10-02T08:35:37.097Z,9.99
2022-10-02T08:36:38.562Z,10.02
2022-10-02T08:37:38.643Z,9.99
2022-10-02T08:38:39.479Z,10.02
2022-10-02T08:39:40.295Z,10.02
2022-10-02T08:40:41.120Z,10.05
2022-10-02T08:41:41.947Z,10.07
2022-10-02T08:42:42.777Z,10.07
2022-10-02T08:43:43.606Z,10.07
2022-10-02T08:44:44.432Z,10.07
2022-10-02T08:45:45.336Z,10.08
2022-10-02T08:46:46.128Z,10.09
2022-10-02T08:47:46.949Z,10.11
2022-10-02T08:48:47.930Z,10.12
2022-10-02T08:49:48.343Z,10.12
2022-10-02T08:50:49.193Z,10.14
2022-10-02T08:51:50.014Z,10.14
2022-10-02T08:52:50.867Z,10.17
2022-10-02T08:53:51.675Z,10.18
2022-10-02T08:54:52.505Z,10.17
2022-10-02T08:55:53.335Z,10.20
2022-10-02T08:56:54.166Z,10.20
2022-10-02T08:57:54.986Z,10.22
2022-10-02T08:58:55.810Z,10.22
2022-10-02T08:59:56.644Z,10.23
2022-10-02T09:00:57.554Z,10.25
2022-10-02T09:02:00.132Z,10.25
2022-10-02T09:02:59.047Z,10.26
2022-10-02T09:03:59.872Z,10.26
2022-10-02T09:05:00.702Z,10.29
2022-10-02T09:06:01.538Z,10.30
2022-10-02T09:07:02.370Z,10.32
2022-10-02T09:08:03.244Z,10.32
2022-10-02T09:09:04.040Z,10.33
2022-10-02T09:10:04.861Z,10.36
2022-10-02T09:11:05.694Z,10.36
2022-10-02T09:12:06.531Z,10.38
2022-10-02T09:13:07.357Z,10.40
2022-10-02T09:14:08.189Z,10.38
2022-10-02T09:15:09.015Z,10.41
2022-10-02T09:16:09.942Z,10.42
2022-10-02T09:17:10.736Z,10.42
2022-10-02T09:18:11.565Z,10.41
2022-10-02T09:19:12.393Z,10.38
2022-10-02T09:20:13.224Z,10.38
2022-10-02T09:21:14.053Z,10.38
2022-10-02T09:22:14.911Z,10.38
2022-10-02T09:23:15.729Z,10.40
2022-10-02T09:24:16.551Z,10.40
2022-10-02T09:25:17.375Z,10.40
2022-10-02T09:26:18.205Z,10.41
2022-10-02T09:27:19.047Z,10.41
2022-10-02T09:28:19.902Z,10.41
2022-10-02T09:29:20.695Z,10.42
2022-10-02T09:30:21.517Z,10.45
2022-10-02T09:31:22.440Z,10.45
2022-10-02T09:32:23.262Z,10.48
2022-10-02T09:33:24.101Z,10.51
2022-10-02T09:34:24.918Z,10.51
2022-10-02T09:35:25.742Z,10.52
2022-10-02T09:36:26.581Z,10.53
2022-10-02T09:37:27.409Z,10.55
2022-10-02T09:38:28.230Z,10.55
2022-10-02T09:39:29.058Z,10.59
2022-10-02T09:40:29.894Z,10.59
2022-10-02T09:41:30.725Z,10.60
2022-10-02T09:42:31.554Z,10.61
2022-10-02T09:43:32.377Z,10.64
2022-10-02T09:44:33.208Z,10.63
2022-10-02T09:45:34.093Z,10.64
2022-10-02T09:46:35.228Z,10.66
2022-10-02T09:47:35.735Z,10.67
2022-10-02T09:48:36.565Z,10.68
2022-10-02T09:49:37.384Z,10.68
2022-10-02T09:50:38.211Z,10.70
2022-10-02T09:51:39.058Z,10.68
2022-10-02T09:52:42.754Z,10.68
2022-10-02T09:53:40.751Z,10.70
2022-10-02T09:54:41.575Z,10.70
2022-10-02T09:55:42.394Z,10.70
2022-10-02T09:56:43.236Z,10.70
2022-10-02T09:57:44.057Z,10.73
2022-10-02T09:58:44.900Z,10.70
2022-10-02T09:59:45.715Z,10.70
2022-10-02T10:00:46.586Z,10.68
2022-10-02T10:01:47.474Z,10.67
2022-10-02T10:02:48.363Z,10.68
2022-10-02T10:03:49.148Z,10.70
2022-10-02T10:05:04.944Z,10.71
2022-10-02T10:05:51.703Z,10.71
2022-10-02T10:06:51.525Z,10.73
2022-10-02T10:07:52.345Z,10.74
2022-10-02T10:08:53.178Z,10.78
2022-10-02T10:09:53.995Z,10.76
2022-10-02T10:10:54.836Z,10.74
2022-10-02T10:11:55.666Z,10.78
2022-10-02T10:12:56.493Z,10.79
2022-10-02T10:13:57.326Z,10.81
2022-10-02T10:14:58.153Z,10.82
2022-10-02T10:15:59.142Z,10.82
2022-10-02T10:16:59.505Z,10.84
2022-10-02T10:18:00.312Z,10.82
2022-10-02T10:19:01.140Z,10.82
2022-10-02T10:20:01.960Z,10.84
2022-10-02T10:21:02.789Z,10.84
2022-10-02T10:22:03.617Z,10.85
2022-10-02T10:23:04.456Z,10.85
2022-10-02T10:24:05.266Z,10.86
2022-10-02T10:25:06.092Z,10.88
2022-10-02T10:26:06.923Z,10.91
2022-10-02T10:27:08.316Z,10.92
2022-10-02T10:28:08.724Z,10.94
2022-10-02T10:29:09.535Z,10.94
2022-10-02T10:30:10.350Z,10.97
2022-10-02T10:31:11.233Z,11.02
2022-10-02T10:32:12.056Z,11.02
2022-10-02T10:33:12.865Z,11.04
2022-10-02T10:34:13.709Z,11.06
2022-10-02T10:35:14.515Z,11.09
2022-10-02T10:36:15.335Z,11.10
2022-10-02T10:37:16.190Z,11.10
2022-10-02T10:38:17.008Z,11.17
2022-10-02T10:39:17.838Z,11.17
2022-10-02T10:40:18.666Z,11.15
2022-10-02T10:41:19.488Z,11.18
2022-10-02T10:42:20.333Z,11.18
2022-10-02T10:43:21.145Z,11.21
2022-10-02T10:44:21.982Z,11.22
2022-10-02T10:45:23.005Z,11.25
2022-10-02T10:46:23.337Z,11.27
2022-10-02T10:47:24.226Z,11.29
2022-10-02T10:48:25.015Z,11.33
2022-10-02T10:49:25.841Z,11.36
2022-10-02T10:50:26.660Z,11.39
2022-10-02T10:51:27.491Z,11.43
2022-10-02T10:52:28.321Z,11.44
2022-10-02T10:53:29.186Z,11.51
2022-10-02T10:54:29.982Z,11.57
2022-10-02T10:55:30.807Z,11.60
2022-10-02T10:56:31.645Z,11.67
2022-10-02T10:57:32.475Z,11.72
2022-10-02T10:58:33.293Z,11.75
2022-10-02T10:59:34.132Z,11.79
2022-10-02T11:00:34.951Z,11.83
2022-10-02T11:01:36.130Z,11.88
2022-10-02T11:02:36.765Z,11.90
2022-10-02T11:03:37.531Z,11.94
2022-10-02T11:04:38.359Z,11.98
2022-10-02T11:05:39.197Z,11.99
2022-10-02T11:06:43.973Z,12.01
2022-10-02T11:07:41.740Z,12.02
2022-10-02T11:08:41.575Z,12.04
2022-10-02T11:09:42.388Z,12.05
2022-10-02T11:10:43.217Z,12.05
2022-10-02T11:11:44.058Z,12.05
2022-10-02T11:12:44.876Z,12.07
2022-10-02T11:13:45.716Z,12.09
2022-10-02T11:14:46.540Z,12.07
2022-10-02T11:15:47.362Z,12.05
2022-10-02T11:16:48.276Z,12.04
2022-10-02T11:17:49.067Z,12.04
2022-10-02T11:18:49.869Z,12.04
2022-10-02T11:19:50.711Z,12.02
2022-10-02T11:20:51.533Z,12.04
2022-10-02T11:21:52.369Z,12.05
2022-10-02T11:22:53.203Z,12.05
2022-10-02T11:23:54.025Z,12.07
2022-10-02T11:24:54.850Z,12.10
2022-10-02T11:25:55.681Z,12.10
2022-10-02T11:26:56.517Z,12.13
2022-10-02T11:27:57.488Z,12.14
2022-10-02T11:28:57.902Z,12.14
2022-10-02T11:29:58.743Z,12.16
2022-10-02T11:30:59.555Z,12.17
2022-10-02T11:32:00.424Z,12.19
2022-10-02T11:33:01.239Z,12.19
2022-10-02T11:34:02.073Z,12.19
2022-10-02T11:35:02.872Z,12.19
2022-10-02T11:36:03.700Z,12.21
2022-10-02T11:37:04.531Z,12.21
2022-10-02T11:38:05.366Z,12.23
2022-10-02T11:39:06.185Z,12.23
2022-10-02T11:40:07.013Z,12.24
2022-10-02T11:41:07.834Z,12.27
2022-10-02T11:42:08.674Z,12.27
2022-10-02T11:43:09.502Z,12.24
2022-10-02T11:44:10.322Z,12.28
2022-10-02T11:45:11.151Z,12.28
2022-10-02T11:46:12.115Z,12.29
2022-10-02T11:47:12.940Z,12.31
2022-10-02T11:48:13.784Z,12.31
2022-10-02T11:49:14.594Z,12.34
2022-10-02T11:50:15.419Z,12.35
2022-10-02T11:51:16.238Z,12.38
2022-10-02T11:52:17.088Z,12.41
2022-10-02T11:53:17.909Z,12.45
2022-10-02T11:54:18.736Z,12.47
2022-10-02T11:55:19.567Z,12.50
2022-10-02T11:56:20.386Z,12.54
2022-10-02T11:57:21.214Z,12.57
2022-10-02T11:58:22.043Z,12.59
2022-10-02T11:59:22.864Z,12.64
2022-10-02T12:00:23.693Z,12.65
2022-10-02T12:01:24.530Z,12.68
2022-10-02T12:02:25.563Z,12.70
2022-10-02T12:03:26.037Z,12.71
2022-10-02T12:04:26.847Z,12.70
2022-10-02T12:05:27.677Z,12.71
2022-10-02T12:06:28.504Z,12.70
2022-10-02T12:07:29.343Z,12.71
2022-10-02T12:08:30.173Z,12.71
2022-10-02T12:09:31.000Z,12.72
2022-10-02T12:10:31.835Z,12.72
2022-10-02T12:11:32.664Z,12.74
2022-10-02T12:12:33.497Z,12.74
2022-10-02T12:13:34.331Z,12.75
2022-10-02T12:14:35.157Z,12.78
2022-10-02T12:15:35.991Z,12.78
2022-10-02T12:16:36.876Z,12.79
2022-10-02T12:17:37.695Z,12.85
2022-10-02T12:18:38.534Z,12.83
2022-10-02T12:19:39.334Z,12.86
2022-10-02T12:20:40.163Z,12.86
2022-10-02T12:21:40.983Z,12.86
2022-10-02T12:22:41.830Z,12.87
2022-10-02T12:23:42.660Z,12.86
2022-10-02T12:24:43.487Z,12.86
2022-10-02T12:25:44.310Z,12.86
2022-10-02T12:26:45.138Z,12.83
2022-10-02T12:27:46.070Z,12.83
2022-10-02T12:28:46.875Z,12.83
2022-10-02T12:29:47.703Z,12.82
2022-10-02T12:30:48.530Z,12.79
2022-10-02T12:31:49.390Z,12.79
2022-10-02T12:32:50.213Z,12.78
2022-10-02T12:33:56.310Z,12.77
2022-10-02T12:34:52.748Z,12.75
2022-10-02T12:35:52.569Z,12.75
2022-10-02T12:36:53.411Z,12.75
2022-10-02T12:37:54.247Z,12.77
2022-10-02T12:38:55.067Z,12.77
2022-10-02T12:39:55.899Z,12.75
2022-10-02T12:40:56.726Z,12.74
2022-10-02T12:41:57.561Z,12.74
2022-10-02T12:42:58.390Z,12.74
2022-10-02T12:43:59.214Z,12.74
2022-10-02T12:45:00.044Z,12.75
2022-10-02T12:46:00.957Z,12.75
2022-10-02T12:47:01.851Z,12.77
2022-10-02T12:48:02.681Z,12.78
2022-10-02T12:49:03.528Z,12.79
2022-10-02T12:50:04.339Z,12.78
2022-10-02T12:51:05.772Z,12.79
2022-10-02T12:52:05.770Z,12.78
2022-10-02T12:53:06.605Z,12.78
2022-10-02T12:54:07.425Z,12.78
2022-10-02T12:55:08.258Z,12.78
2022-10-02T12:56:09.104Z,12.75
2022-10-02T12:57:09.925Z,12.74
2022-10-02T12:58:10.753Z,12.75
2022-10-02T12:59:11.595Z,12.74
2022-10-02T13:00:12.411Z,12.74
2022-10-02T13:01:13.311Z,12.72
2022-10-02T13:02:14.179Z,12.71
2022-10-02T13:03:15.042Z,12.72
2022-10-02T13:04:15.879Z,12.72
2022-10-02T13:05:16.688Z,12.74
2022-10-02T13:06:17.518Z,12.71
2022-10-02T13:07:18.356Z,12.70
2022-10-02T13:08:19.177Z,12.71
2022-10-02T13:09:20.005Z,12.68
2022-10-02T13:10:20.832Z,12.68
2022-10-02T13:11:21.656Z,12.68
2022-10-02T13:12:22.486Z,12.70
2022-10-02T13:13:23.313Z,12.70
2022-10-02T13:14:24.138Z,12.68
2022-10-02T13:15:24.967Z,12.70
2022-10-02T13:16:25.890Z,12.70
2022-10-02T13:17:26.701Z,12.71
2022-10-02T13:18:27.520Z,12.70
2022-10-02T13:19:28.366Z,12.72
2022-10-02T13:20:29.168Z,12.71